Time;durP1;ratioP1;P1;durP2;ratioP2;P2;SDS_P1;SDS_P2;PMS_P1;PMS_P2;Temp;Humidity;BMP_temperature;BMP_pressure;BME280_temperature;BME280_humidity;BME280_pressure;Samples;Min_cycle;Max_cycle;Signal;HPM_P1;HPM_P2
2023/09/07 00:02:59;;;;;;;13.90;10.10;;;;;;;13.66;75.04;101139.55;131542;1247;108504;-78
2023/09/07 00:06:05;;;;;;;13.50;10.00;;;;;;;13.65;74.96;101139.86;131637;1251;108525;-79
2023/09/07 00:09:11;;;;;;;18.10;11.30;;;;;;;13.63;75.03;101146.30;131479;1250;106998;-79
2023/09/07 00:12:17;;;;;;;14.50;10.10;;;;;;;13.60;74.90;101143.11;131627;1250;108175;-78
2023/09/07 00:15:23;;;;;;;14.00;10.50;;;;;;;13.55;75.17;101144.64;131569;1259;106357;-78
2023/09/07 00:18:29;;;;;;;13.30;9.40;;;;;;;13.49;75.10;101143.63;131557;1251;106680;-78
2023/09/07 00:21:34;;;;;;;12.50;8.90;;;;;;;13.46;75.35;101140.71;131537;1251;107742;-78
2023/09/07 00:24:40;;;;;;;13.40;9.50;;;;;;;13.46;75.31;101139.98;131532;1250;106732;-78
2023/09/07 00:27:45;;;;;;;13.70;10.30;;;;;;;13.46;75.17;101137.84;131602;1250;107558;-78
2023/09/07 00:30:51;;;;;;;12.30;10.30;;;;;;;13.49;75.13;101139.67;131552;1248;107831;-78
2023/09/07 00:33:56;;;;;;;13.10;10.40;;;;;;;13.49;75.16;101144.00;131581;1250;108638;-78
2023/09/07 00:37:02;;;;;;;13.80;10.50;;;;;;;13.49;75.13;101142.69;131537;1261;106558;-78
2023/09/07 00:40:10;;;;;;;15.80;11.20;;;;;;;13.48;75.15;101142.48;131578;1261;107067;-79
2023/09/07 00:43:15;;;;;;;13.80;10.80;;;;;;;13.42;74.95;101141.75;131512;1257;107872;-79
2023/09/07 00:46:21;;;;;;;14.10;11.00;;;;;;;13.38;75.16;101138.38;131608;1251;106898;-78
2023/09/07 00:49:28;;;;;;;17.70;11.20;;;;;;;13.32;75.12;101139.12;131607;1253;107587;-78
2023/09/07 00:52:35;;;;;;;12.90;9.30;;;;;;;13.30;75.20;101140.61;131542;1251;106427;-78
2023/09/07 00:55:41;;;;;;;14.90;10.10;;;;;;;13.29;75.13;101145.17;131022;1249;400202;-78
2023/09/07 00:58:47;;;;;;;14.50;10.60;;;;;;;13.29;75.33;101146.73;131622;1250;107691;-78
2023/09/07 01:01:52;;;;;;;17.10;11.60;;;;;;;13.28;75.32;101152.23;131546;1250;106735;-78
2023/09/07 01:04:59;;;;;;;13.40;10.60;;;;;;;13.13;75.63;101152.81;131258;1253;108731;-78
2023/09/07 01:08:11;;;;;;;13.10;10.80;;;;;;;13.07;75.65;101153.00;131339;1254;108634;-79
2023/09/07 01:11:17;;;;;;;15.60;11.00;;;;;;;13.08;75.54;101150.04;131338;1253;108723;-79
2023/09/07 01:14:23;;;;;;;14.30;10.60;;;;;;;13.08;75.70;101149.20;131407;1251;107458;-78
2023/09/07 01:17:28;;;;;;;12.80;9.70;;;;;;;13.04;75.68;101149.85;131264;1248;107306;-78
2023/09/07 01:20:36;;;;;;;13.80;10.10;;;;;;;13.03;75.67;101146.73;131381;1248;107181;-78
2023/09/07 01:23:44;;;;;;;14.10;10.40;;;;;;;13.04;75.70;101151.52;131388;1253;107422;-78
2023/09/07 01:26:51;;;;;;;14.20;10.90;;;;;;;13.03;75.79;101146.77;131501;1248;108171;-78
2023/09/07 01:29:58;;;;;;;15.50;10.90;;;;;;;13.00;75.53;101147.38;131370;1251;108093;-78
2023/09/07 01:33:04;;;;;;;16.80;10.70;;;;;;;12.96;75.70;101146.30;131436;1251;108017;-78
2023/09/07 01:36:10;;;;;;;14.90;11.30;;;;;;;12.96;75.84;101145.05;131354;1253;107734;-81
2023/09/07 01:39:16;;;;;;;14.70;10.50;;;;;;;12.94;75.94;101144.73;131391;1253;107851;-78
2023/09/07 01:42:22;;;;;;;13.50;10.80;;;;;;;12.93;75.84;101146.63;131459;1253;108613;-79
2023/09/07 01:45:28;;;;;;;14.30;11.00;;;;;;;12.90;75.70;101141.92;131393;1253;106527;-79
2023/09/07 01:48:34;;;;;;;16.10;10.40;;;;;;;12.86;75.88;101150.17;131420;1253;107043;-78
2023/09/07 01:51:40;;;;;;;13.50;9.90;;;;;;;12.83;75.98;101152.91;131241;1253;108228;-79
2023/09/07 01:54:46;;;;;;;12.30;9.90;;;;;;;12.83;76.06;101147.96;131248;1252;108448;-79
2023/09/07 01:57:51;;;;;;;15.30;10.60;;;;;;;12.85;75.91;101150.66;131386;1253;107483;-78
2023/09/07 02:01:00;;;;;;;13.30;10.10;;;;;;;12.84;76.02;101150.39;131313;1253;106581;-78
2023/09/07 02:04:06;;;;;;;15.20;10.70;;;;;;;12.85;75.94;101146.68;131572;1251;107839;-78
2023/09/07 02:07:13;;;;;;;14.00;10.80;;;;;;;12.83;75.90;101149.03;131544;1250;107602;-79
2023/09/07 02:10:19;;;;;;;13.70;10.80;;;;;;;12.82;75.97;101147.56;131548;1250;106641;-78
2023/09/07 02:13:25;;;;;;;14.80;11.30;;;;;;;12.78;75.94;101153.05;131551;1250;106309;-78
2023/09/07 02:16:30;;;;;;;14.40;11.20;;;;;;;12.74;75.89;101155.73;131584;1251;108595;-78
2023/09/07 02:19:36;;;;;;;15.60;11.30;;;;;;;12.70;76.06;101154.56;131332;1254;106473;-78
2023/09/07 02:22:42;;;;;;;13.60;10.50;;;;;;;12.63;76.26;101157.47;131231;1248;106635;-78
2023/09/07 02:25:47;;;;;;;15.40;10.60;;;;;;;12.62;76.25;101156.15;131741;1254;108629;-78
2023/09/07 02:28:53;;;;;;;14.80;11.20;;;;;;;12.63;76.17;101153.27;131906;1253;106785;-78
2023/09/07 02:31:59;;;;;;;13.80;11.10;;;;;;;12.65;76.31;101157.31;131706;1250;107771;-81
2023/09/07 02:35:05;;;;;;;14.60;11.00;;;;;;;12.65;76.18;101158.01;131603;1259;108417;-79
2023/09/07 02:38:13;;;;;;;16.40;11.20;;;;;;;12.64;76.16;101156.49;131635;1250;108008;-80
2023/09/07 02:41:19;;;;;;;14.10;10.50;;;;;;;12.61;76.31;101156.84;131997;1251;106383;-75
2023/09/07 02:44:24;;;;;;;13.20;10.90;;;;;;;12.57;76.25;101153.06;132546;1246;108628;-75
2023/09/07 02:47:30;;;;;;;15.00;11.10;;;;;;;12.50;76.16;101158.19;131795;1247;107661;-75
2023/09/07 02:50:36;;;;;;;13.30;10.10;;;;;;;12.46;76.12;101153.01;131723;1262;106646;-74
2023/09/07 02:53:42;;;;;;;13.80;9.40;;;;;;;12.44;76.22;101156.39;131520;1250;106236;-75
2023/09/07 02:56:48;;;;;;;11.40;10.00;;;;;;;12.46;76.24;101156.41;131628;1248;106795;-75
2023/09/07 02:59:56;;;;;;;14.30;10.40;;;;;;;12.48;76.12;101160.90;131668;1253;107792;-74
2023/09/07 03:03:01;;;;;;;13.70;10.30;;;;;;;12.48;76.10;101160.30;131647;1252;107667;-75
2023/09/07 03:06:13;;;;;;;13.70;10.20;;;;;;;12.47;75.95;101158.78;131256;1254;106976;-74
2023/09/07 03:09:18;;;;;;;;;;;;;;;12.46;76.17;101159.10;131607;1256;107058;-75
2023/09/07 03:12:24;;;;;;;13.10;9.60;;;;;;;12.44;76.14;101158.89;131619;1251;106377;-75
2023/09/07 03:15:31;;;;;;;13.30;10.40;;;;;;;12.43;76.24;101155.42;131537;1251;107517;-75
2023/09/07 03:18:37;;;;;;;12.90;10.00;;;;;;;12.40;76.02;101154.29;131623;1251;107954;-75
2023/09/07 03:21:43;;;;;;;13.30;10.60;;;;;;;12.29;75.71;101152.11;131635;1254;107767;-75
2023/09/07 03:24:52;;;;;;;11.50;9.40;;;;;;;12.20;76.20;101153.65;131641;1248;107064;-75
2023/09/07 03:27:58;;;;;;;12.40;9.10;;;;;;;12.19;76.57;101152.66;131456;1254;108163;-75
2023/09/07 03:31:04;;;;;;;13.50;9.20;;;;;;;12.20;76.29;101156.65;131815;1252;107554;-74
2023/09/07 03:34:10;;;;;;;12.60;9.90;;;;;;;12.21;76.28;101157.13;131666;1250;106595;-74
2023/09/07 03:37:16;;;;;;;13.30;9.70;;;;;;;12.23;76.39;101162.89;131163;1256;107589;-77
2023/09/07 03:40:21;;;;;;;11.40;9.30;;;;;;;12.22;76.48;101165.77;131191;1253;106865;-74
2023/09/07 03:43:27;;;;;;;12.40;9.90;;;;;;;12.21;76.33;101165.90;131615;1251;108705;-75
2023/09/07 03:46:33;;;;;;;15.20;10.10;;;;;;;12.20;76.12;101163.31;131611;1251;107738;-75
2023/09/07 03:49:39;;;;;;;12.70;9.80;;;;;;;12.14;75.97;101165.40;131564;1253;106915;-75
2023/09/07 03:52:44;;;;;;;12.30;10.00;;;;;;;12.12;76.41;101163.84;131578;1254;107962;-75
2023/09/07 03:55:50;;;;;;;12.50;9.00;;;;;;;12.08;76.45;101164.58;131530;1254;107624;-75
2023/09/07 03:58:56;;;;;;;11.40;8.30;;;;;;;12.06;76.72;101163.51;131642;1250;106998;-75
2023/09/07 04:02:02;;;;;;;12.80;9.00;;;;;;;12.08;76.50;101162.95;131573;1251;107260;-75
2023/09/07 04:05:10;;;;;;;11.50;9.40;;;;;;;12.10;76.45;101166.34;131517;1260;107693;-75
2023/09/07 04:08:16;;;;;;;11.50;9.30;;;;;;;12.11;76.48;101169.48;131437;1254;108619;-74
2023/09/07 04:11:21;;;;;;;13.70;9.70;;;;;;;12.14;76.51;101170.99;131254;1248;107824;-75
2023/09/07 04:14:28;;;;;;;13.90;10.20;;;;;;;12.16;76.50;101172.52;131626;1248;107721;-74
2023/09/07 04:17:39;;;;;;;12.00;9.70;;;;;;;12.18;76.32;101176.32;131664;1248;108660;-74
2023/09/07 04:20:46;;;;;;;13.90;9.70;;;;;;;12.20;76.49;101171.47;131579;1254;107234;-74
2023/09/07 04:23:52;;;;;;;11.10;9.40;;;;;;;12.21;76.25;101175.55;131560;1248;107424;-77
2023/09/07 04:27:01;;;;;;;13.00;9.90;;;;;;;12.21;76.57;101173.59;131620;1250;106824;-77
2023/09/07 04:30:09;;;;;;;12.00;9.20;;;;;;;12.21;76.85;101172.80;131599;1251;107648;-77
2023/09/07 04:33:15;;;;;;;13.00;9.00;;;;;;;12.26;76.78;101176.46;131353;1253;107487;-77
2023/09/07 04:36:21;;;;;;;11.90;8.50;;;;;;;12.35;76.84;101180.23;131567;1257;106875;-77
2023/09/07 04:39:27;;;;;;;12.90;9.80;;;;;;;12.47;76.86;101182.16;131576;1259;108150;-77
2023/09/07 04:42:32;;;;;;;11.70;9.70;;;;;;;12.60;76.68;101181.30;131597;1251;107744;-74
2023/09/07 04:45:46;;;;;;;12.30;9.10;;;;;;;12.75;76.88;101185.64;131570;1251;107065;-74
2023/09/07 04:48:51;;;;;;;14.90;9.70;;;;;;;12.88;76.90;101185.70;131692;1251;108805;-74
2023/09/07 04:51:57;;;;;;;12.60;10.10;;;;;;;13.00;76.54;101185.97;131679;1260;107687;-74
2023/09/07 04:55:05;;;;;;;11.40;9.20;;;;;;;13.10;76.85;101187.17;132486;1250;106853;-74
2023/09/07 04:58:11;;;;;;;11.80;8.70;;;;;;;13.21;76.74;101185.77;131621;1253;106263;-74
2023/09/07 05:01:17;;;;;;;11.60;8.30;;;;;;;13.34;77.00;101188.62;131446;1254;107301;-75
2023/09/07 05:04:23;;;;;;;10.40;8.40;;;;;;;13.49;77.10;101187.54;131634;1260;107729;-74
2023/09/07 05:07:30;;;;;;;10.20;8.60;;;;;;;13.65;77.03;101190.95;131646;1252;108636;-75
2023/09/07 05:10:36;;;;;;;10.10;9.00;;;;;;;13.82;76.81;101192.02;131583;1259;108012;-75
2023/09/07 05:13:42;;;;;;;12.10;9.70;;;;;;;13.93;76.94;101189.86;131651;1252;106471;-74
2023/09/07 05:16:48;;;;;;;11.80;9.30;;;;;;;14.07;77.04;101190.44;131597;1250;106754;-75
2023/09/07 05:19:54;;;;;;;12.30;9.40;;;;;;;14.19;77.04;101193.74;131584;1247;108726;-76
2023/09/07 05:23:00;;;;;;;10.80;9.30;;;;;;;14.28;77.17;101192.30;131617;1253;106771;-76
2023/09/07 05:26:06;;;;;;;14.10;8.50;;;;;;;14.33;77.28;101192.86;131543;1250;107716;-77
2023/09/07 05:29:13;;;;;;;12.60;9.40;;;;;;;14.38;77.29;101194.88;131467;1247;107716;-76
2023/09/07 05:32:20;;;;;;;11.20;9.20;;;;;;;14.44;77.54;101194.10;131616;1259;106768;-76
2023/09/07 05:35:29;;;;;;;11.80;9.10;;;;;;;14.55;77.85;101199.77;131591;1250;106418;-76
2023/09/07 05:38:34;;;;;;;11.60;9.30;;;;;;;14.69;77.90;101200.73;131332;1256;107020;-76
2023/09/07 05:41:40;;;;;;;12.70;9.10;;;;;;;14.80;77.95;101203.13;131270;1254;106219;-76
2023/09/07 05:44:46;;;;;;;11.80;9.30;;;;;;;14.91;78.16;101200.10;131660;1253;107113;-76
2023/09/07 05:47:51;;;;;;;10.50;8.90;;;;;;;15.00;78.35;101206.71;131403;1250;107594;-76
2023/09/07 05:50:57;;;;;;;10.80;8.60;;;;;;;15.07;78.50;101207.53;131611;1248;107718;-76
2023/09/07 05:54:03;;;;;;;10.80;8.30;;;;;;;15.16;78.73;101209.90;131585;1248;107630;-76
2023/09/07 05:57:09;;;;;;;9.20;7.80;;;;;;;15.25;78.92;101213.57;131629;1250;107698;-76
2023/09/07 06:00:16;;;;;;;11.70;8.30;;;;;;;15.37;79.25;101211.45;131576;1251;108339;-76
2023/09/07 06:03:22;;;;;;;10.20;8.40;;;;;;;15.50;79.58;101215.27;131402;1251;106738;-76
2023/09/07 06:06:30;;;;;;;13.20;9.60;;;;;;;15.62;79.87;101216.15;131604;1252;106678;-76
2023/09/07 06:09:36;;;;;;;12.10;9.10;;;;;;;15.75;80.06;101217.16;131319;1256;107856;-77
2023/09/07 06:12:42;;;;;;;12.00;8.70;;;;;;;15.88;80.22;101217.41;131380;1254;107674;-77
2023/09/07 06:15:48;;;;;;;10.70;8.30;;;;;;;16.00;80.14;101215.39;131609;1253;106974;-76
2023/09/07 06:18:53;;;;;;;12.70;9.20;;;;;;;16.13;80.56;101221.13;131618;1251;108418;-77
2023/09/07 06:21:59;;;;;;;11.60;9.80;;;;;;;16.30;80.80;101218.05;131556;1253;108484;-77
2023/09/07 06:25:05;;;;;;;14.70;11.80;;;;;;;16.46;80.91;101221.90;131467;1254;107677;-77
2023/09/07 06:28:11;;;;;;;17.10;12.20;;;;;;;16.61;81.05;101224.42;131513;1255;106672;-76
2023/09/07 06:31:17;;;;;;;13.30;10.80;;;;;;;16.75;81.12;101225.56;131660;1250;107605;-79
2023/09/07 06:34:22;;;;;;;11.40;9.90;;;;;;;16.90;81.10;101228.62;131439;1257;105783;-77
2023/09/07 06:37:28;;;;;;;11.80;10.10;;;;;;;17.03;81.00;101228.25;131612;1251;108489;-79
2023/09/07 06:40:34;;;;;;;11.80;9.40;;;;;;;17.20;81.36;101237.29;131317;1248;107637;-77
2023/09/07 06:43:41;;;;;;;12.80;10.30;;;;;;;17.37;81.25;101229.95;131750;1257;108589;-77
2023/09/07 06:46:49;;;;;;;13.00;11.00;;;;;;;17.53;81.53;101227.98;131944;1251;107801;-77
2023/09/07 06:49:56;;;;;;;13.70;9.90;;;;;;;17.70;81.58;101227.83;131685;1251;107604;-78
2023/09/07 06:53:02;;;;;;;11.20;8.60;;;;;;;17.84;81.62;101227.66;131622;1251;108795;-77
2023/09/07 06:56:08;;;;;;;11.90;9.20;;;;;;;18.01;81.58;101231.55;131422;1248;107552;-78
2023/09/07 06:59:14;;;;;;;15.20;9.20;;;;;;;18.20;81.53;101232.02;131375;1253;107958;-78
2023/09/07 07:02:20;;;;;;;12.70;9.70;;;;;;;18.38;81.57;101230.27;131687;1257;106353;-78
2023/09/07 07:05:28;;;;;;;11.80;9.40;;;;;;;18.52;81.34;101229.92;131693;1251;108134;-78
2023/09/07 07:08:34;;;;;;;9.30;8.10;;;;;;;18.64;80.81;101230.64;131633;1254;108213;-78
2023/09/07 07:11:40;;;;;;;11.50;7.60;;;;;;;18.71;80.62;101229.23;131420;1255;106387;-79
2023/09/07 07:14:46;;;;;;;9.40;7.30;;;;;;;18.79;80.43;101231.70;131767;1248;107580;-78
2023/09/07 07:17:52;;;;;;;7.70;6.90;;;;;;;18.89;80.26;101237.27;131698;1251;106804;-79
2023/09/07 07:20:59;;;;;;;9.90;7.70;;;;;;;19.03;80.43;101240.56;131711;1250;106757;-78
2023/09/07 07:24:06;;;;;;;9.90;8.80;;;;;;;19.18;80.22;101239.89;131628;1251;107652;-78
2023/09/07 07:27:12;;;;;;;10.80;9.70;;;;;;;19.31;80.04;101239.77;131329;1248;108642;-79
2023/09/07 07:30:18;;;;;;;12.00;9.50;;;;;;;19.44;79.52;101242.67;131809;1247;107765;-78
2023/09/07 07:33:24;;;;;;;8.90;8.00;;;;;;;19.56;78.57;101240.81;131807;1251;106988;-78
2023/09/07 07:36:32;;;;;;;8.60;6.40;;;;;;;19.66;77.49;101237.98;131633;1252;108503;-79
2023/09/07 07:39:39;;;;;;;12.10;7.60;;;;;;;19.73;77.43;101239.33;131629;1251;106311;-79
2023/09/07 07:42:46;;;;;;;9.60;7.20;;;;;;;19.85;77.72;101240.59;131446;1253;107736;-77
2023/09/07 07:45:55;;;;;;;7.90;6.90;;;;;;;19.93;77.20;101240.89;131551;1248;107364;-77
2023/09/07 07:49:01;;;;;;;8.50;6.80;;;;;;;20.01;77.14;101244.90;131710;1248;107754;-76
2023/09/07 07:52:08;;;;;;;7.80;6.00;;;;;;;20.09;77.05;101248.08;131623;1251;108619;-77
2023/09/07 07:55:14;;;;;;;7.60;6.40;;;;;;;20.16;76.62;101251.53;131556;1248;108481;-78
2023/09/07 07:58:20;;;;;;;11.60;7.30;;;;;;;20.26;76.47;101255.22;131528;1254;107731;-77
2023/09/07 08:01:26;;;;;;;7.70;6.70;;;;;;;20.35;76.03;101253.69;131604;1251;107919;-77
2023/09/07 08:04:34;;;;;;;7.60;6.10;;;;;;;20.46;75.69;101252.48;131737;1250;106851;-77
2023/09/07 08:07:40;;;;;;;7.80;6.10;;;;;;;20.57;75.86;101251.07;131619;1248;107182;-78
2023/09/07 08:10:47;;;;;;;8.00;5.50;;;;;;;20.62;75.32;101248.59;131485;1259;106401;-77
2023/09/07 08:13:53;;;;;;;8.20;5.90;;;;;;;20.65;75.27;101246.16;131640;1250;107674;-77
2023/09/07 08:16:59;;;;;;;7.80;6.20;;;;;;;20.70;75.10;101247.54;131625;1251;106645;-77
2023/09/07 08:20:08;;;;;;;10.00;5.80;;;;;;;20.77;74.90;101245.17;131524;1251;108341;-77
2023/09/07 08:23:14;;;;;;;7.40;5.70;;;;;;;20.81;74.65;101244.08;131331;1254;107980;-78
2023/09/07 08:26:21;;;;;;;9.40;5.90;;;;;;;20.89;74.22;101245.23;131617;1251;107831;-77
2023/09/07 08:29:27;;;;;;;8.30;6.00;;;;;;;20.97;74.14;101246.61;131754;1247;107000;-77
2023/09/07 08:32:32;;;;;;;10.60;5.90;;;;;;;21.01;73.97;101248.91;131654;1246;106499;-77
2023/09/07 08:35:43;;;;;;;7.20;5.60;;;;;;;21.06;73.91;101245.59;131559;1247;107650;-78
2023/09/07 08:38:50;;;;;;;9.10;6.10;;;;;;;21.15;73.95;101246.53;131647;1255;107370;-77
2023/09/07 08:42:00;;;;;;;7.10;4.60;;;;;;;21.26;73.72;101244.30;131619;1250;107359;-77
2023/09/07 08:45:09;;;;;;;6.60;4.80;;;;;;;21.32;71.93;101242.41;131754;1248;107043;-77
2023/09/07 08:48:17;;;;;;;8.30;5.70;;;;;;;21.42;72.05;101246.16;131598;1251;106613;-77
2023/09/07 08:51:23;;;;;;;10.90;6.40;;;;;;;21.55;71.41;101246.21;131615;1251;107664;-77
2023/09/07 08:54:29;;;;;;;7.20;5.40;;;;;;;21.67;71.55;101246.77;131619;1251;106400;-77
2023/09/07 08:57:34;;;;;;;10.40;5.30;;;;;;;21.76;70.39;101245.91;131552;1251;106875;-76
2023/09/07 09:00:43;;;;;;;8.50;5.40;;;;;;;21.88;69.37;101244.51;131714;1248;106654;-77
2023/09/07 09:03:49;;;;;;;7.70;5.20;;;;;;;22.00;69.11;101244.00;131630;1259;107561;-77
2023/09/07 09:06:54;;;;;;;7.50;5.30;;;;;;;22.09;69.80;101241.42;131613;1251;106625;-77
2023/09/07 09:10:09;;;;;;;11.40;5.10;;;;;;;22.13;70.08;101246.59;131586;1260;107195;-76
2023/09/07 09:13:14;;;;;;;6.50;4.90;;;;;;;22.13;69.86;101244.04;131591;1251;108602;-77
2023/09/07 09:16:20;;;;;;;6.40;4.20;;;;;;;22.15;69.80;101239.79;131624;1251;107224;-77
2023/09/07 09:19:34;;;;;;;5.90;5.00;;;;;;;22.25;67.94;101240.94;131573;1251;106959;-77
2023/09/07 09:22:40;;;;;;;7.30;5.00;;;;;;;22.35;67.04;101239.88;131589;1247;107763;-77
2023/09/07 09:25:45;;;;;;;6.40;4.50;;;;;;;22.46;68.85;101238.61;131702;1248;107185;-77
2023/09/07 09:28:52;;;;;;;6.20;4.50;;;;;;;22.53;67.95;101240.95;131698;1248;107725;-78
2023/09/07 09:31:58;;;;;;;7.20;4.40;;;;;;;22.61;67.26;101242.93;131660;1248;108658;-77
2023/09/07 09:35:05;;;;;;;5.80;4.50;;;;;;;22.64;68.04;101240.88;131583;1251;107923;-76
2023/09/07 09:38:14;;;;;;;5.60;4.20;;;;;;;22.68;67.72;101241.59;131589;1246;106482;-77
2023/09/07 09:41:20;;;;;;;4.80;4.20;;;;;;;22.74;66.78;101244.30;131531;1250;107890;-77
2023/09/07 09:44:29;;;;;;;6.80;4.80;;;;;;;22.78;67.10;101237.19;131729;1257;107308;-77
2023/09/07 09:47:39;;;;;;;6.10;4.60;;;;;;;22.80;67.17;101233.83;131582;1250;108637;-77
2023/09/07 09:50:48;;;;;;;5.20;4.50;;;;;;;22.82;67.09;101236.80;131630;1261;107848;-77
2023/09/07 09:53:56;;;;;;;4.90;4.20;;;;;;;22.86;67.00;101231.95;131673;1251;106793;-78
2023/09/07 09:57:01;;;;;;;5.20;4.50;;;;;;;22.92;66.77;101232.36;131646;1251;107743;-77
2023/09/07 10:00:19;;;;;;;7.30;4.60;;;;;;;23.00;66.49;101231.31;131647;1251;106899;-77
2023/09/07 10:03:30;;;;;;;6.00;4.30;;;;;;;23.09;65.73;101231.91;131645;1254;107958;-77
2023/09/07 10:06:35;;;;;;;4.20;3.80;;;;;;;23.17;66.18;101227.29;131670;1251;107794;-77
2023/09/07 10:09:41;;;;;;;5.90;4.30;;;;;;;23.26;66.28;101225.05;131645;1259;106675;-77
2023/09/07 10:12:52;;;;;;;5.20;3.80;;;;;;;23.24;65.93;101224.38;131588;1251;107969;-78
2023/09/07 10:16:07;;;;;;;6.10;3.90;;;;;;;23.20;65.79;101225.10;131580;1250;107868;-78
2023/09/07 10:19:21;;;;;;;4.00;3.70;;;;;;;23.17;65.64;101223.31;131622;1247;107701;-77
2023/09/07 10:22:30;;;;;;;4.90;4.00;;;;;;;23.26;63.93;101223.58;131592;1250;107760;-78
2023/09/07 10:25:39;;;;;;;5.40;4.20;;;;;;;23.42;64.80;101224.54;131623;1254;107084;-79
2023/09/07 10:28:45;;;;;;;6.00;4.30;;;;;;;23.61;64.30;101225.23;131677;1248;108365;-78
2023/09/07 10:31:54;;;;;;;4.50;3.80;;;;;;;23.82;64.72;101219.91;131674;1250;108633;-78
2023/09/07 10:35:02;;;;;;;5.60;3.80;;;;;;;24.00;64.17;101215.92;131609;1248;106268;-79
2023/09/07 10:38:09;;;;;;;7.50;4.20;;;;;;;24.14;63.64;101222.96;131585;1248;106811;-79
2023/09/07 10:41:14;;;;;;;5.40;4.20;;;;;;;24.26;63.24;101218.15;131620;1250;107750;-78
2023/09/07 10:44:27;;;;;;;4.40;3.90;;;;;;;24.40;63.28;101213.68;131699;1251;107018;-79
2023/09/07 10:47:36;;;;;;;3.90;3.40;;;;;;;24.56;62.23;101216.98;131622;1261;106385;-79
2023/09/07 10:50:52;;;;;;;4.30;3.60;;;;;;;24.70;61.34;101214.60;131566;1250;107056;-79
2023/09/07 10:53:58;;;;;;;4.50;3.50;;;;;;;24.88;62.18;101215.94;131711;1247;106960;-79
2023/09/07 10:57:13;;;;;;;5.70;3.50;;;;;;;24.95;61.04;101213.48;131619;1251;108300;-78
2023/09/07 11:00:19;;;;;;;4.00;3.50;;;;;;;24.94;61.65;101209.00;131544;1247;107035;-78
2023/09/07 11:03:25;;;;;;;6.60;4.10;;;;;;;24.99;61.02;101204.48;131686;1262;107951;-79
2023/09/07 11:06:31;;;;;;;4.30;3.90;;;;;;;25.03;60.72;101205.34;131633;1251;108155;-79
2023/09/07 11:09:42;;;;;;;7.40;4.20;;;;;;;25.06;59.42;101203.96;131654;1251;106939;-80
2023/09/07 11:12:48;;;;;;;;;;;;;;;24.96;59.07;101205.21;132028;1251;107779;-80
2023/09/07 11:15:57;;;;;;;5.00;3.80;;;;;;;24.85;59.19;101206.19;131833;1247;108548;-81
2023/09/07 11:19:06;;;;;;;4.80;3.50;;;;;;;24.80;59.90;101203.85;131929;1257;107397;-79
2023/09/07 11:22:13;;;;;;;4.40;4.00;;;;;;;24.74;59.04;101205.25;131641;1247;106749;-78
2023/09/07 11:25:20;;;;;;;4.40;3.90;;;;;;;24.64;57.47;101208.41;131584;1247;106700;-79
2023/09/07 11:28:25;;;;;;;5.80;3.90;;;;;;;24.57;59.05;101206.86;131672;1250;107715;-79
2023/09/07 11:31:31;;;;;;;5.20;3.60;;;;;;;24.61;59.29;101207.55;131672;1248;107729;-78
2023/09/07 11:34:48;;;;;;;4.90;3.80;;;;;;;24.77;59.29;101204.21;131613;1251;107527;-79
2023/09/07 11:37:56;;;;;;;5.00;3.80;;;;;;;24.92;59.05;101206.96;131624;1249;106713;-79
2023/09/07 11:41:01;;;;;;;4.80;3.80;;;;;;;25.02;58.79;101208.58;131587;1251;108605;-79
2023/09/07 11:44:07;;;;;;;4.20;3.80;;;;;;;24.92;58.62;101208.15;131653;1248;107942;-79
2023/09/07 11:47:13;;;;;;;4.60;3.90;;;;;;;24.79;58.05;101207.90;131675;1260;107267;-79
2023/09/07 11:50:20;;;;;;;8.10;4.50;;;;;;;24.63;57.58;101204.92;131558;1250;106697;-78
2023/09/07 11:53:26;;;;;;;5.10;3.80;;;;;;;24.47;58.60;101202.01;131629;1248;108041;-78
2023/09/07 11:56:32;;;;;;;5.30;4.00;;;;;;;24.34;58.25;101201.22;131586;1246;108244;-78
2023/09/07 11:59:37;;;;;;;5.50;4.10;;;;;;;24.23;58.47;101201.40;131722;1247;107054;-78
2023/09/07 12:02:43;;;;;;;4.90;3.90;;;;;;;24.19;58.33;101196.34;131584;1253;108028;-78
2023/09/07 12:05:49;;;;;;;5.60;4.10;;;;;;;24.28;58.72;101195.06;131614;1261;108611;-77
2023/09/07 12:09:06;;;;;;;6.10;4.20;;;;;;;24.43;58.60;101193.48;131913;1248;108637;-77
2023/09/07 12:12:12;;;;;;;4.60;3.60;;;;;;;24.50;57.78;101190.95;131634;1250;106732;-78
2023/09/07 12:15:17;;;;;;;4.90;4.40;;;;;;;24.59;57.70;101185.44;131631;1248;107549;-78
2023/09/07 12:18:24;;;;;;;4.70;4.30;;;;;;;24.62;55.93;101189.14;131621;1251;106362;-78
2023/09/07 12:21:30;;;;;;;4.40;4.00;;;;;;;24.65;56.96;101182.53;131578;1251;108654;-78
2023/09/07 12:24:35;;;;;;;5.00;4.00;;;;;;;24.67;56.69;101185.70;131557;1248;107867;-78
2023/09/07 12:27:42;;;;;;;4.70;3.90;;;;;;;24.64;56.93;101185.69;131608;1252;108866;-78
2023/09/07 12:30:48;;;;;;;7.00;4.00;;;;;;;24.62;56.42;101184.77;131647;1251;107800;-77
2023/09/07 12:33:54;;;;;;;5.60;4.20;;;;;;;24.61;56.16;101182.60;131611;1250;107044;-78
2023/09/07 12:36:59;;;;;;;4.90;3.70;;;;;;;24.50;56.38;101184.41;131529;1254;107918;-77
2023/09/07 12:40:11;;;;;;;5.70;4.20;;;;;;;24.39;56.35;101180.16;131703;1247;107649;-78
2023/09/07 12:43:15;;;;;;;;;;;;;;;24.39;56.57;101174.48;131539;1247;107614;-78
2023/09/07 12:46:21;;;;;;;6.50;4.50;;;;;;;24.46;55.47;101173.76;131781;1248;107546;-78
2023/09/07 12:49:26;;;;;;;5.20;4.30;;;;;;;24.59;56.59;101168.02;131600;1251;106867;-77
2023/09/07 12:52:34;;;;;;;4.80;4.30;;;;;;;24.70;56.63;101167.23;131888;1260;107914;-79
2023/09/07 12:55:40;;;;;;;4.50;3.90;;;;;;;24.78;56.65;101155.99;131413;1247;226419;-80
2023/09/07 12:58:45;;;;;;;4.50;3.90;;;;;;;24.86;56.58;101157.19;131625;1258;108012;-79
2023/09/07 13:01:53;;;;;;;5.30;4.00;;;;;;;24.90;55.89;101157.17;131705;1252;108468;-79
2023/09/07 13:04:59;;;;;;;4.80;3.80;;;;;;;24.92;56.05;101151.48;131617;1247;108655;-78
2023/09/07 13:08:06;;;;;;;5.60;4.00;;;;;;;24.97;55.87;101146.02;131606;1251;108547;-78
2023/09/07 13:11:12;;;;;;;4.20;3.80;;;;;;;25.05;56.36;101140.23;131656;1254;106350;-79
2023/09/07 13:14:17;;;;;;;5.00;4.10;;;;;;;25.15;55.93;101142.20;131802;1247;108362;-78
2023/09/07 13:17:23;;;;;;;4.00;3.70;;;;;;;25.21;55.83;101141.84;131735;1248;107063;-79
2023/09/07 13:20:33;;;;;;;4.50;3.80;;;;;;;25.28;55.44;101138.78;131651;1250;108105;-79
2023/09/07 13:23:41;;;;;;;4.00;3.60;;;;;;;25.36;55.74;101133.95;131454;1247;109567;-78
2023/09/07 13:26:51;;;;;;;4.80;3.60;;;;;;;25.42;55.54;101135.04;131719;1247;107053;-80
2023/09/07 13:29:57;;;;;;;4.50;3.50;;;;;;;25.55;55.29;101136.48;131636;1250;107675;-78
2023/09/07 13:33:04;;;;;;;5.10;3.70;;;;;;;25.62;54.71;101132.96;131582;1251;107844;-78
2023/09/07 13:36:10;;;;;;;3.90;3.50;;;;;;;25.66;54.61;101131.85;131626;1251;108712;-78
2023/09/07 13:39:19;;;;;;;4.70;3.60;;;;;;;25.69;54.40;101128.66;131538;1248;106869;-78
2023/09/07 13:42:29;;;;;;;3.70;3.40;;;;;;;25.68;54.48;101127.76;131654;1248;106306;-78
2023/09/07 13:45:35;;;;;;;4.90;3.70;;;;;;;25.64;54.13;101129.14;131720;1248;107685;-79
2023/09/07 13:48:41;;;;;;;4.00;3.60;;;;;;;25.50;53.93;101128.34;131814;1250;106749;-79
2023/09/07 13:51:46;;;;;;;3.90;3.60;;;;;;;25.31;54.08;101129.37;131614;1250;107926;-80
2023/09/07 13:54:52;;;;;;;3.50;3.20;;;;;;;25.18;54.04;101127.07;131701;1248;107691;-79
2023/09/07 13:57:57;;;;;;;4.20;3.60;;;;;;;25.14;54.01;101127.91;131624;1250;107113;-78
2023/09/07 14:01:03;;;;;;;4.50;4.00;;;;;;;25.12;54.21;101123.50;131665;1248;108639;-78
2023/09/07 14:04:09;;;;;;;5.30;4.00;;;;;;;25.09;53.84;101123.13;131724;1246;107690;-78